Time;durP1;ratioP1;P1;durP2;ratioP2;P2;SDS_P1;SDS_P2;PMS_P1;PMS_P2;Temp;Humidity;BMP_temperature;BMP_pressure;BME280_temperature;BME280_humidity;BME280_pressure;Samples;Min_cycle;Max_cycle;Signal;HPM_P1;HPM_P2
2022/02/23 00:00:25;;;;;;;;;6.25;4.00;;;;;11.71;69.01;102359.94;5106040;27;45411;-62
2022/02/23 00:02:51;;;;;;;;;4.75;3.75;;;;;11.69;69.17;102348.59;5109415;27;45569;-68
2022/02/23 00:05:17;;;;;;;;;4.00;4.00;;;;;11.67;68.99;102352.19;5106692;27;45463;-67
2022/02/23 00:07:42;;;;;;;;;9.00;4.00;;;;;11.65;69.26;102360.16;5105034;27;45864;-67
2022/02/23 00:10:08;;;;;;;;;4.75;3.25;;;;;11.64;69.34;102353.16;5107513;27;45619;-67
2022/02/23 00:12:34;;;;;;;;;8.25;3.25;;;;;11.62;69.42;102351.50;5089151;27;45404;-67
2022/02/23 00:15:00;;;;;;;;;9.25;3.75;;;;;11.58;69.32;102361.31;5110956;27;45425;-67
2022/02/23 00:17:27;;;;;;;;;2.75;2.00;;;;;11.56;69.20;102364.94;5112124;27;45379;-67
2022/02/23 00:19:53;;;;;;;;;3.25;2.25;;;;;11.52;69.29;102363.31;5109056;27;45457;-67
2022/02/23 00:22:19;;;;;;;;;6.75;5.00;;;;;11.49;69.62;102368.72;5103559;27;45332;-67
2022/02/23 00:24:45;;;;;;;;;6.50;3.75;;;;;11.46;69.88;102361.78;5103122;27;45442;-67
2022/02/23 00:27:11;;;;;;;;;6.00;3.75;;;;;11.42;69.45;102363.66;5109260;27;45676;-67
2022/02/23 00:29:36;;;;;;;;;7.50;5.00;;;;;11.41;69.71;102366.34;5110078;27;45947;-67
2022/02/23 00:32:03;;;;;;;;;4.25;3.25;;;;;11.40;69.63;102354.09;5109259;27;45431;-67
2022/02/23 00:34:28;;;;;;;;;7.50;3.75;;;;;11.37;69.68;102356.81;5107396;27;45696;-67
2022/02/23 00:36:54;;;;;;;;;7.25;5.00;;;;;11.36;70.18;102368.28;5092890;27;45501;-66
2022/02/23 00:39:20;;;;;;;;;8.75;4.00;;;;;11.34;70.13;102365.72;5088046;27;45426;-66
2022/02/23 00:41:46;;;;;;;;;8.00;4.00;;;;;11.32;70.02;102359.63;5089935;27;45699;-66
2022/02/23 00:44:12;;;;;;;;;9.50;5.25;;;;;11.31;70.33;102360.56;5100719;27;45529;-66
2022/02/23 00:46:38;;;;;;;;;9.50;5.50;;;;;11.27;70.47;102361.56;5103424;27;45348;-66
2022/02/23 00:49:03;;;;;;;;;2.50;2.50;;;;;11.25;70.55;102357.28;5103014;27;46038;-66
2022/02/23 00:51:29;;;;;;;;;4.25;3.50;;;;;11.21;70.26;102353.88;5083943;27;45532;-66
2022/02/23 00:53:54;;;;;;;;;5.50;4.50;;;;;11.20;70.41;102360.06;5082394;27;45337;-66
2022/02/23 00:56:20;;;;;;;;;5.25;3.00;;;;;11.17;70.88;102368.09;5081735;27;45137;-66
2022/02/23 00:58:45;;;;;;;;;8.75;4.25;;;;;11.16;71.00;102364.59;5086080;27;46043;-66
2022/02/23 01:01:11;;;;;;;;;4.75;4.00;;;;;11.13;70.62;102369.13;5097158;27;45497;-66
2022/02/23 01:03:36;;;;;;;;;6.50;5.25;;;;;11.13;70.44;102371.75;5096403;27;45414;-66
2022/02/23 01:06:02;;;;;;;;;6.00;5.50;;;;;11.09;70.94;102371.00;5082861;28;45506;-66
2022/02/23 01:08:28;;;;;;;;;9.25;4.25;;;;;11.07;71.05;102372.84;5086188;27;45532;-66
2022/02/23 01:10:53;;;;;;;;;6.75;5.00;;;;;11.06;70.84;102373.78;5100784;27;45457;-66
2022/02/23 01:13:19;;;;;;;;;4.75;4.25;;;;;11.05;70.83;102373.81;5102841;27;45552;-66
2022/02/23 01:15:45;;;;;;;;;4.50;4.50;;;;;11.02;70.97;102373.91;5103123;27;45470;-66
2022/02/23 01:18:10;;;;;;;;;3.25;3.00;;;;;11.01;71.30;102372.19;5102573;27;45433;-66
2022/02/23 01:20:36;;;;;;;;;5.00;4.00;;;;;10.99;71.61;102366.13;5087869;27;45406;-66
2022/02/23 01:23:02;;;;;;;;;8.00;4.25;;;;;10.99;71.12;102379.31;5081880;28;45383;-66
2022/02/23 01:25:29;;;;;;;;;12.25;4.00;;;;;10.95;71.27;102378.53;5081939;28;45644;-66
2022/02/23 01:27:55;;;;;;;;;6.50;3.00;;;;;10.91;71.31;102382.22;5094417;27;46164;-66
2022/02/23 01:30:20;;;;;;;;;3.75;2.75;;;;;10.89;71.32;102378.75;5102322;27;45288;-66
2022/02/23 01:32:46;;;;;;;;;11.75;3.50;;;;;10.86;71.16;102379.72;5102023;27;45426;-66
2022/02/23 01:35:11;;;;;;;;;7.00;3.75;;;;;10.84;71.85;102378.06;5091496;27;45772;-66
2022/02/23 01:37:37;;;;;;;;;5.00;2.00;;;;;10.81;71.36;102381.63;5080329;27;46412;-66
2022/02/23 01:40:04;;;;;;;;;4.75;3.75;;;;;10.79;71.42;102377.34;5081756;27;45430;-66
2022/02/23 01:42:29;;;;;;;;;5.75;3.25;;;;;10.75;71.98;102375.75;5081801;28;45375;-66
2022/02/23 01:44:55;;;;;;;;;5.75;4.50;;;;;10.72;71.56;102379.31;5089820;27;45672;-66
2022/02/23 01:47:21;;;;;;;;;4.00;3.25;;;;;10.70;71.80;102390.84;5101087;27;46103;-66
2022/02/23 01:49:46;;;;;;;;;4.50;2.50;;;;;10.66;71.72;102389.19;5100729;27;45318;-66
2022/02/23 01:52:12;;;;;;;;;5.25;2.75;;;;;10.66;71.74;102400.59;5100705;27;45504;-66
2022/02/23 01:54:37;;;;;;;;;6.00;4.75;;;;;10.65;72.13;102400.66;5095115;27;45581;-66
2022/02/23 01:57:03;;;;;;;;;5.50;3.75;;;;;10.62;72.03;102396.34;5094581;27;45538;-66
2022/02/23 01:59:29;;;;;;;;;9.50;4.75;;;;;10.58;71.87;102392.09;5082579;27;45308;-66
2022/02/23 02:01:54;;;;;;;;;7.75;3.50;;;;;10.55;72.32;102398.31;5072361;27;45487;-66
2022/02/23 02:04:23;;;;;;;;;13.75;4.25;;;;;10.53;71.93;102399.31;5085747;27;45647;-66
2022/02/23 02:06:52;;;;;;;;;11.75;5.25;;;;;10.51;71.97;102398.50;5101139;27;45440;-66
2022/02/23 02:09:18;;;;;;;;;3.00;2.50;;;;;10.50;72.21;102400.25;5083547;27;45268;-66
2022/02/23 02:11:44;;;;;;;;;3.50;3.50;;;;;10.50;71.97;102404.66;5081620;27;45601;-66
2022/02/23 02:14:10;;;;;;;;;9.25;3.00;;;;;10.48;72.24;102409.13;5080568;27;45215;-66
2022/02/23 02:16:35;;;;;;;;;6.00;3.75;;;;;10.45;72.06;102407.44;5083398;27;46633;-66
2022/02/23 02:19:03;;;;;;;;;9.00;4.75;;;;;10.42;72.16;102404.03;5084627;27;45254;-66
2022/02/23 02:21:47;;;;;;;;;7.00;3.25;;;;;10.39;72.47;102410.28;5080969;27;45469;-66
2022/02/23 02:24:13;;;;;;;;;6.75;3.50;;;;;10.38;72.60;102416.47;5082349;27;45355;-66
2022/02/23 02:26:39;;;;;;;;;4.75;3.50;;;;;10.35;72.15;102421.84;5102033;27;46057;-66
2022/02/23 02:29:05;;;;;;;;;6.50;4.75;;;;;10.32;72.59;102414.88;5101164;27;45445;-66
2022/02/23 02:31:30;;;;;;;;;10.00;3.25;;;;;10.31;72.74;102407.88;5101533;27;45377;-66
2022/02/23 02:33:55;;;;;;;;;9.25;3.50;;;;;10.28;72.58;102409.75;5101810;27;45587;-66
2022/02/23 02:36:21;;;;;;;;;4.00;4.00;;;;;10.25;72.17;102413.34;5081949;27;46375;-66
2022/02/23 02:38:46;;;;;;;;;2.75;2.75;;;;;10.25;72.38;102420.38;5081178;27;45231;-66
2022/02/23 02:41:12;;;;;;;;;6.75;2.75;;;;;10.22;72.42;102412.53;5083105;27;45458;-66
2022/02/23 02:43:37;;;;;;;;;8.25;3.25;;;;;10.21;72.43;102410.81;5081295;27;45592;-66
2022/02/23 02:46:03;;;;;;;;;3.75;2.00;;;;;10.19;72.50;102404.72;5097260;27;46129;-66
2022/02/23 02:48:28;;;;;;;;;4.00;2.75;;;;;10.16;72.77;102400.41;5100633;27;45382;-66
2022/02/23 02:50:53;;;;;;;;;8.25;3.50;;;;;10.15;72.88;102408.38;5102002;27;45361;-66
2022/02/23 02:53:19;;;;;;;;;5.00;4.00;;;;;10.14;72.78;102406.66;5083988;27;45564;-66
2022/02/23 02:55:44;;;;;;;;;8.50;6.75;;;;;10.13;72.79;102405.78;5080852;27;45327;-66
2022/02/23 02:58:10;;;;;;;;;11.50;5.25;;;;;10.11;72.66;102402.34;5100863;27;45198;-66
2022/02/23 03:00:36;;;;;;;;;13.25;4.00;;;;;10.08;72.51;102402.44;5101208;27;45446;-66
2022/02/23 03:03:01;;;;;;;;;8.75;4.50;;;;;10.06;72.88;102412.16;5089168;27;45353;-66
2022/02/23 03:05:29;;;;;;;;;2.50;2.50;;;;;10.05;72.41;102419.19;5080835;28;45507;-66
2022/02/23 03:07:54;;;;;;;;;5.50;4.00;;;;;10.04;72.65;102419.25;5090185;27;45462;-66
2022/02/23 03:10:20;;;;;;;;;6.25;3.75;;;;;10.00;72.23;102412.34;5101231;27;45481;-66
2022/02/23 03:12:45;;;;;;;;;7.75;4.00;;;;;9.97;72.47;102409.81;5101161;27;45308;-66
2022/02/23 03:15:11;;;;;;;;;4.00;4.00;;;;;9.95;72.77;102414.22;5097416;27;45992;-66
2022/02/23 03:17:36;;;;;;;;;7.25;3.25;;;;;9.92;72.39;102416.97;5080815;28;45161;-66
2022/02/23 03:20:03;;;;;;;;;10.25;6.00;;;;;9.91;72.66;102420.50;5083405;27;45301;-66
2022/02/23 03:22:29;;;;;;;;;6.50;3.50;;;;;9.87;73.23;102414.44;5085566;27;45454;-66
2022/02/23 03:24:54;;;;;;;;;13.00;4.00;;;;;9.83;73.18;102418.09;5084218;27;45944;-65
2022/02/23 03:27:20;;;;;;;;;7.00;4.00;;;;;9.81;73.45;102412.03;5084096;27;45304;-65
2022/02/23 03:29:45;;;;;;;;;12.00;4.00;;;;;9.81;73.18;102417.28;5084511;28;45544;-65
2022/02/23 03:32:11;;;;;;;;;7.25;4.50;;;;;9.81;73.37;102422.56;5089821;27;45402;-65
2022/02/23 03:34:36;;;;;;;;;5.75;3.75;;;;;9.81;72.81;102427.81;5104725;27;46074;-65
2022/02/23 03:37:02;;;;;;;;;3.50;3.00;;;;;9.79;72.69;102416.44;5103615;27;45306;-65
2022/02/23 03:39:28;;;;;;;;;6.75;4.00;;;;;9.74;72.27;102416.59;5091026;27;45480;-66
2022/02/23 03:41:53;;;;;;;;;8.00;3.25;;;;;9.73;73.06;102428.03;5092722;27;45509;-66
2022/02/23 03:44:19;;;;;;;;;7.00;7.00;;;;;9.71;72.38;102421.94;5104237;27;45323;-66
2022/02/23 03:46:44;;;;;;;;;8.00;2.50;;;;;9.71;72.99;102428.97;5103738;27;45386;-66
2022/02/23 03:49:10;;;;;;;;;6.25;4.25;;;;;9.66;72.17;102420.38;5103990;27;45402;-66
2022/02/23 03:51:35;;;;;;;;;8.00;5.50;;;;;9.65;72.55;102426.53;5103414;27;45429;-66
2022/02/23 03:54:01;;;;;;;;;5.25;2.75;;;;;9.63;72.98;102425.69;5083122;27;45884;-65
2022/02/23 03:56:38;;;;;;;;;7.00;3.00;;;;;9.60;72.68;102431.91;5083234;27;45392;-65
2022/02/23 03:59:08;;;;;;;;;6.50;2.25;;;;;9.58;72.51;102427.63;5083378;27;45216;-66
2022/02/23 04:01:39;;;;;;;;;7.00;4.00;;;;;9.57;73.01;102426.75;5082987;27;45537;-65
2022/02/23 04:04:06;;;;;;;;;4.00;1.25;;;;;9.55;72.43;102425.03;5083117;28;45406;-65
2022/02/23 04:06:32;;;;;;;;;8.50;6.00;;;;;9.53;72.83;102427.72;5083128;27;45477;-65
2022/02/23 04:09:00;;;;;;;;;9.50;7.00;;;;;9.52;73.08;102428.63;5091857;27;45895;-66
2022/02/23 04:11:26;;;;;;;;;7.00;6.00;;;;;9.49;73.01;102423.47;5082924;27;45434;-66
2022/02/23 04:13:51;;;;;;;;;7.25;6.25;;;;;9.46;72.78;102424.41;5101447;27;45462;-66
2022/02/23 04:16:17;;;;;;;;;8.25;3.00;;;;;9.44;73.11;102420.97;5103437;27;45370;-66
2022/02/23 04:18:44;;;;;;;;;10.50;3.25;;;;;9.44;73.18;102425.34;5103834;27;45653;-65
2022/02/23 04:21:09;;;;;;;;;13.00;4.50;;;;;9.42;73.53;102417.50;5103486;27;45527;-66
2022/02/23 04:23:35;;;;;;;;;6.25;5.00;;;;;9.39;73.54;102417.56;5086178;27;46086;-65
2022/02/23 04:26:01;;;;;;;;;4.50;4.50;;;;;9.38;73.80;102415.00;5082932;28;46347;-65
2022/02/23 04:28:29;;;;;;;;;8.25;6.00;;;;;9.36;73.66;102408.91;5082805;28;45508;-66
2022/02/23 04:30:55;;;;;;;;;14.50;8.00;;;;;9.35;73.88;102412.47;5081586;27;45592;-66
2022/02/23 04:33:21;;;;;;;;;11.25;5.00;;;;;9.32;73.89;102416.06;5097407;27;45333;-66
2022/02/23 04:35:47;;;;;;;;;7.75;5.50;;;;;9.32;73.29;102415.16;5103173;27;45355;-66
2022/02/23 04:38:14;;;;;;;;;10.25;6.50;;;;;9.31;73.51;102410.81;5074509;28;45409;-65
2022/02/23 04:40:43;;;;;;;;;7.75;6.25;;;;;9.29;73.11;102412.63;5096139;27;45472;-65
2022/02/23 04:43:09;;;;;;;;;16.25;6.75;;;;;9.29;73.04;102421.38;5094787;27;45485;-65
2022/02/23 04:45:34;;;;;;;;;12.50;7.75;;;;;9.25;73.29;102425.00;5103344;27;45414;-65
2022/02/23 04:47:59;;;;;;;;;9.50;6.00;;;;;9.23;73.11;102417.13;5103683;27;45398;-66
2022/02/23 04:50:25;;;;;;;;;6.25;3.50;;;;;9.22;72.99;102417.19;5103102;27;45694;-65
2022/02/23 04:52:50;;;;;;;;;10.00;4.00;;;;;9.19;73.21;102418.13;5093272;27;45415;-65
2022/02/23 04:55:16;;;;;;;;;9.50;2.00;;;;;9.18;73.11;102419.03;5082741;27;45343;-66
2022/02/23 04:57:41;;;;;;;;;4.50;3.00;;;;;9.17;72.56;102419.94;5082586;28;45415;-66
2022/02/23 05:00:07;;;;;;;;;6.50;3.75;;;;;9.15;72.83;102421.72;5082468;27;45572;-66
2022/02/23 05:02:33;;;;;;;;;7.50;4.75;;;;;9.13;72.67;102422.69;5088596;27;46031;-66
2022/02/23 05:04:58;;;;;;;;;7.00;4.00;;;;;9.09;73.20;102426.31;5102625;27;45396;-66
2022/02/23 05:07:24;;;;;;;;;4.00;4.00;;;;;9.08;73.47;102427.19;5102783;27;45312;-66
2022/02/23 05:09:50;;;;;;;;;14.00;6.75;;;;;9.06;73.72;102429.00;5086015;27;45647;-66
2022/02/23 05:12:16;;;;;;;;;8.25;6.25;;;;;9.06;73.63;102421.97;5085722;27;46137;-66
2022/02/23 05:14:42;;;;;;;;;8.75;5.50;;;;;9.04;73.54;102426.41;5102680;27;45457;-66
2022/02/23 05:17:07;;;;;;;;;12.50;7.25;;;;;9.03;74.03;102423.84;5102641;27;45417;-66
2022/02/23 05:19:34;;;;;;;;;10.25;6.00;;;;;9.01;73.73;102423.03;5102658;27;45490;-66
2022/02/23 05:22:01;;;;;;;;;14.75;8.00;;;;;8.99;73.51;102423.03;5101362;27;46193;-66
2022/02/23 05:24:28;;;;;;;;;11.00;6.00;;;;;8.99;73.59;102430.06;5082028;27;45402;-66
2022/02/23 05:26:57;;;;;;;;;7.25;5.00;;;;;8.95;73.24;102427.53;5082613;28;45253;-65
2022/02/23 05:29:23;;;;;;;;;8.75;6.00;;;;;8.92;73.40;102432.84;5081517;27;45578;-66
2022/02/23 05:31:49;;;;;;;;;6.50;2.25;;;;;8.89;73.70;102430.28;5101302;27;45437;-66
2022/02/23 05:34:15;;;;;;;;;9.00;6.25;;;;;8.88;73.62;102433.81;5102268;27;45456;-66
2022/02/23 05:36:41;;;;;;;;;12.25;7.00;;;;;8.88;73.71;102435.59;5102561;27;45374;-66
2022/02/23 05:39:07;;;;;;;;;11.25;8.00;;;;;8.84;73.39;102436.56;5100832;27;45479;-66
2022/02/23 05:41:33;;;;;;;;;9.25;8.50;;;;;8.81;73.58;102441.91;5089925;27;45584;-66
2022/02/23 05:43:58;;;;;;;;;11.50;6.75;;;;;8.79;73.50;102441.09;5081534;27;45461;-66
2022/02/23 05:46:24;;;;;;;;;12.25;7.00;;;;;8.75;73.81;102437.66;5081787;27;45354;-66
2022/02/23 05:48:49;;;;;;;;;13.00;7.00;;;;;8.75;74.22;102450.78;5096479;27;45580;-66
2022/02/23 05:51:25;;;;;;;;;18.00;10.00;;;;;8.74;74.12;102453.47;5102508;27;45320;-65
2022/02/23 05:53:51;;;;;;;;;12.00;7.75;;;;;8.74;74.22;102456.09;5101865;27;45730;-65
2022/02/23 05:56:17;;;;;;;;;9.00;6.00;;;;;8.74;74.04;102450.84;5083937;27;45386;-65
2022/02/23 05:58:42;;;;;;;;;15.25;9.00;;;;;8.72;74.07;102442.13;5081124;27;45651;-66
2022/02/23 06:01:10;;;;;;;;;11.00;8.00;;;;;8.72;73.98;102450.88;5081147;28;46078;-65
2022/02/23 06:03:36;;;;;;;;;8.75;8.00;;;;;8.72;73.99;102458.75;5081290;28;45391;-66
2022/02/23 06:06:02;;;;;;;;;14.75;8.25;;;;;8.69;73.86;102458.84;5091912;27;45363;-65
2022/02/23 06:08:27;;;;;;;;;15.25;11.00;;;;;8.66;73.58;102458.91;5089312;27;45390;-65
2022/02/23 06:10:53;;;;;;;;;15.25;10.50;;;;;8.66;73.82;102458.91;5081166;28;45359;-65
2022/02/23 06:13:18;;;;;;;;;12.75;9.50;;;;;8.63;73.87;102449.34;5081287;28;45336;-66
2022/02/23 06:15:44;;;;;;;;;11.75;7.75;;;;;8.61;73.95;102456.41;5093738;27;45223;-66
2022/02/23 06:18:09;;;;;;;;;20.50;14.00;;;;;8.59;73.76;102463.41;5085259;27;45383;-66
2022/02/23 06:20:35;;;;;;;;;19.25;13.75;;;;;8.58;74.10;102460.84;5081254;28;45375;-66
2022/02/23 06:23:00;;;;;;;;;17.00;12.00;;;;;8.57;73.87;102464.38;5082783;27;45220;-66
2022/02/23 06:25:26;;;;;;;;;13.75;11.25;;;;;8.52;74.03;102461.84;5098376;27;45307;-66
2022/02/23 06:27:52;;;;;;;;;21.00;11.75;;;;;8.50;73.96;102462.78;5100886;27;45501;-66
2022/02/23 06:30:17;;;;;;;;;17.25;11.25;;;;;8.49;74.07;102463.69;5101086;27;45400;-66
2022/02/23 06:32:43;;;;;;;;;15.00;10.00;;;;;8.49;74.42;102469.78;5088518;27;45825;-64
2022/02/23 06:35:08;;;;;;;;;20.50;13.50;;;;;8.50;74.21;102457.53;5083441;27;45669;-64
2022/02/23 06:37:34;;;;;;;;;20.00;12.75;;;;;8.48;74.08;102480.34;5095867;27;45358;-64
2022/02/23 06:39:59;;;;;;;;;19.00;13.75;;;;;8.46;73.48;102480.38;5092407;27;45457;-64
2022/02/23 06:42:25;;;;;;;;;22.75;14.00;;;;;8.42;73.80;102472.59;5103229;27;45670;-65
2022/02/23 06:44:51;;;;;;;;;25.75;17.50;;;;;8.43;73.88;102479.56;5105150;27;45435;-65
2022/02/23 06:47:17;;;;;;;;;17.50;10.00;;;;;8.41;74.00;102478.75;5108737;27;45381;-66
2022/02/23 06:49:42;;;;;;;;;14.00;11.25;;;;;8.43;73.76;102490.94;5108505;27;45379;-66
2022/02/23 06:52:09;;;;;;;;;19.50;12.75;;;;;8.45;74.18;102483.88;5106695;27;45514;-65
2022/02/23 06:54:35;;;;;;;;;21.50;11.00;;;;;8.45;74.57;102481.25;5091980;27;45327;-66
2022/02/23 06:57:00;;;;;;;;;8.50;7.50;;;;;8.47;75.12;102486.50;5094645;27;45555;-67
2022/02/23 06:59:26;;;;;;;;;21.00;13.50;;;;;8.49;75.12;102485.56;5088784;27;45483;-66
2022/02/23 07:01:51;;;;;;;;;17.75;16.25;;;;;8.51;74.92;102489.00;5083036;27;45488;-66
2022/02/23 07:04:17;;;;;;;;;27.50;20.75;;;;;8.54;74.81;102486.31;5091473;27;45458;-66
2022/02/23 07:06:43;;;;;;;;;26.75;19.75;;;;;8.58;74.93;102489.72;5102001;27;45528;-66
2022/02/23 07:09:09;;;;;;;;;30.25;23.50;;;;;8.62;74.54;102489.63;5087358;27;45515;-67
2022/02/23 07:11:37;;;;;;;;;28.50;23.00;;;;;8.67;74.43;102487.75;5092602;27;45355;-66
2022/02/23 07:14:03;;;;;;;;;35.25;22.25;;;;;8.72;74.48;102500.78;5086806;27;46594;-67
2022/02/23 07:16:29;;;;;;;;;21.50;18.25;;;;;8.76;74.24;102496.31;5085703;27;45492;-67
2022/02/23 07:18:55;;;;;;;;;36.50;24.00;;;;;8.78;74.38;102494.53;5085436;27;45446;-68
2022/02/23 07:21:20;;;;;;;;;24.75;20.25;;;;;8.79;74.63;102494.50;5066374;28;46716;-67
2022/02/23 07:23:46;;;;;;;;;21.25;16.00;;;;;8.83;75.01;102500.53;5090959;27;45428;-67
2022/02/23 07:26:14;;;;;;;;;22.00;18.00;;;;;8.90;74.62;102502.13;5088607;27;45468;-66
2022/02/23 07:28:41;;;;;;;;;26.00;21.75;;;;;8.96;74.37;102507.22;5074512;27;47190;-65
2022/02/23 07:31:08;;;;;;;;;23.75;22.75;;;;;9.01;74.67;102501.88;5070271;27;45508;-66
2022/02/23 07:33:37;;;;;;;;;28.75;24.75;;;;;9.08;74.66;102506.03;5067002;28;45441;-67
2022/02/23 07:36:03;;;;;;;;;24.50;18.75;;;;;9.14;74.38;102513.78;5083051;27;45648;-66
2022/02/23 07:38:29;;;;;;;;;41.50;32.00;;;;;9.19;74.26;102512.78;5092672;27;45480;-66
2022/02/23 07:40:54;;;;;;;;;31.75;23.50;;;;;9.21;74.50;102500.47;5087892;27;45538;-63
2022/02/23 07:43:20;;;;;;;;;32.25;27.00;;;;;9.23;74.14;102503.91;5090537;27;45522;-66
2022/02/23 07:45:46;;;;;;;;;35.00;24.50;;;;;9.25;73.95;102506.53;5089072;27;45354;-67
2022/02/23 07:48:11;;;;;;;;;33.50;24.00;;;;;9.26;74.19;102504.75;5087409;27;45384;-62
2022/02/23 07:50:40;;;;;;;;;39.75;23.00;;;;;9.28;74.25;102513.44;5088597;27;46529;-64
2022/02/23 07:53:05;;;;;;;;;42.25;26.25;;;;;9.30;74.48;102515.13;5086987;27;45484;-63
2022/02/23 07:55:31;;;;;;;;;32.50;19.75;;;;;9.35;74.08;102513.25;5087046;27;45976;-67
2022/02/23 07:57:58;;;;;;;;;30.25;27.25;;;;;9.40;74.04;102510.50;5086826;27;45518;-62
2022/02/23 08:00:24;;;;;;;;;41.50;30.50;;;;;9.45;74.19;102517.38;5082356;27;45351;-61
2022/02/23 08:02:49;;;;;;;;;28.25;27.25;;;;;9.50;73.88;102507.59;5088952;27;45405;-61
2022/02/23 08:05:15;;;;;;;;;55.25;37.00;;;;;9.55;73.75;102506.59;5087752;27;45384;-62
2022/02/23 08:07:41;;;;;;;;;32.25;24.25;;;;;9.57;73.68;102505.69;5084663;27;45878;-62
2022/02/23 08:10:07;;;;;;;;;44.25;26.50;;;;;9.61;73.88;102506.44;5092070;27;45429;-62
2022/02/23 08:12:32;;;;;;;;;45.00;30.50;;;;;9.65;73.85;102508.97;5094272;27;45505;-62
2022/02/23 08:19:30;;;;;;;;;35.00;25.25;;;;;9.68;73.42;102519.41;5089247;27;45268;-62
2022/02/23 08:20:28;;;;;;;;;38.75;27.50;;;;;9.78;73.38;102510.34;5088957;27;45545;-62
2022/02/23 08:22:55;;;;;;;;;39.00;29.25;;;;;9.76;73.05;102512.16;5092084;27;45448;-62
2022/02/23 08:25:21;;;;;;;;;37.25;32.75;;;;;9.77;73.27;102518.28;5095521;27;45274;-62
2022/02/23 08:27:46;;;;;;;;;48.75;35.75;;;;;9.75;73.15;102514.84;5082280;27;45511;-62
2022/02/23 08:30:13;;;;;;;;;41.50;27.00;;;;;9.76;73.20;102521.81;5083986;27;45577;-62
2022/02/23 08:32:38;;;;;;;;;45.00;34.00;;;;;9.79;73.06;102524.34;5081768;27;45716;-62
2022/02/23 08:35:04;;;;;;;;;45.25;28.25;;;;;9.74;73.03;102513.97;5087004;27;45776;-62
2022/02/23 08:37:30;;;;;;;;;32.25;23.00;;;;;9.81;73.68;102524.34;5088890;27;45715;-62
2022/02/23 08:39:55;;;;;;;;;35.00;23.25;;;;;9.84;73.32;102532.13;5086195;27;45851;-62
2022/02/23 08:42:21;;;;;;;;;37.75;24.25;;;;;9.85;72.88;102525.97;5095334;27;45767;-62
2022/02/23 08:44:46;;;;;;;;;27.75;22.25;;;;;9.85;73.57;102521.56;5085599;27;45359;-62
2022/02/23 08:47:12;;;;;;;;;39.50;27.75;;;;;9.91;73.30;102525.81;5074986;27;45402;-62
2022/02/23 08:49:38;;;;;;;;;35.25;23.75;;;;;9.97;72.82;102529.13;5097162;27;45372;-62
2022/02/23 08:52:04;;;;;;;;;35.75;28.00;;;;;10.05;72.73;102534.19;5098644;27;45296;-62
2022/02/23 08:54:30;;;;;;;;;35.50;30.25;;;;;10.12;72.68;102532.25;5084997;27;45224;-64
2022/02/23 08:56:55;;;;;;;;;49.00;32.75;;;;;10.14;72.09;102528.66;5083654;27;45285;-62
2022/02/23 08:59:21;;;;;;;;;42.50;28.50;;;;;10.18;72.14;102529.41;5082475;27;45397;-62
2022/02/23 09:01:47;;;;;;;;;44.75;36.50;;;;;10.16;71.97;102525.97;5091297;27;45491;-77
2022/02/23 09:04:12;;;;;;;;;50.75;34.25;;;;;10.16;72.31;102518.94;5081969;27;45467;-76
2022/02/23 09:06:40;;;;;;;;;32.75;30.00;;;;;10.19;72.31;102524.13;5094021;27;45462;-74
2022/02/23 09:09:07;;;;;;;;;47.75;37.25;;;;;10.29;71.91;102520.34;5103175;27;45394;-74
2022/02/23 09:11:33;;;;;;;;;42.00;29.50;;;;;10.34;72.18;102523.69;5101358;27;45247;-66
2022/02/23 09:13:59;;;;;;;;;42.25;32.50;;;;;10.40;72.24;102512.09;5096562;27;45181;-70
2022/02/23 09:16:24;;;;;;;;;43.50;36.00;;;;;10.47;71.92;102520.69;5101821;27;45215;-69
2022/02/23 09:18:50;;;;;;;;;48.50;34.75;;;;;10.55;71.59;102514.28;5102933;27;45380;-69
2022/02/23 09:21:16;;;;;;;;;39.25;32.50;;;;;10.65;71.64;102506.94;5102744;27;46327;-70
2022/02/23 09:23:42;;;;;;;;;44.25;31.75;;;;;10.72;71.20;102511.09;5102119;27;45426;-68
2022/02/23 09:26:08;;;;;;;;;43.50;35.75;;;;;10.77;70.89;102516.25;5097265;27;46070;-69
2022/02/23 09:28:38;;;;;;;;;49.50;36.00;;;;;10.78;70.80;102512.69;5099872;27;45417;-69
2022/02/23 09:31:08;;;;;;;;;84.33;63.33;;;;;10.79;70.89;102504.72;5084089;27;45239;-69
2022/02/23 09:33:35;;;;;;;;;49.50;32.75;;;;;10.81;70.52;102504.69;5085098;27;45398;-69
2022/02/23 09:36:02;;;;;;;;;47.25;34.50;;;;;10.77;71.25;102509.19;5102294;27;46171;-70
2022/02/23 09:38:30;;;;;;;;;48.00;39.75;;;;;10.78;70.84;102502.16;5100034;27;45255;-70
2022/02/23 09:40:57;;;;;;;;;54.75;38.50;;;;;10.79;70.75;102504.72;5089063;27;45227;-70
2022/02/23 09:43:23;;;;;;;;;79.00;60.33;;;;;10.69;70.46;102490.13;5102550;27;45425;-70
2022/02/23 09:45:53;;;;;;;;;50.75;40.00;;;;;10.70;70.67;102491.84;5083478;27;46690;-67
2022/02/23 09:48:30;;;;;;;;;43.50;36.25;;;;;10.75;71.06;102495.22;5096459;27;45888;-69
2022/02/23 09:50:57;;;;;;;;;61.00;36.50;;;;;10.76;70.88;102502.22;5063379;28;45282;-72
2022/02/23 09:53:23;;;;;;;;;53.25;43.00;;;;;10.79;70.67;102498.59;5076353;28;45406;-71
2022/02/23 09:55:52;;;;;;;;;61.75;43.25;;;;;10.78;70.34;102491.59;5073796;27;46147;-71
2022/02/23 09:58:18;;;;;;;;;55.75;41.75;;;;;10.86;70.80;102479.91;5062863;28;45500;-71
2022/02/23 10:00:44;;;;;;;;;55.50;38.75;;;;;10.93;70.70;102477.06;5081413;27;45260;-73
2022/02/23 10:03:10;;;;;;;;;50.00;39.25;;;;;10.99;70.62;102483.00;5081533;27;45295;-71
2022/02/23 10:05:41;;;;;;;;;29.75;22.00;;;;;11.08;70.20;102479.19;5081465;27;45270;-76
2022/02/23 10:08:09;;;;;;;;;54.50;39.50;;;;;11.12;70.53;102468.47;5082193;27;45589;-71
2022/02/23 10:10:43;;;;;;;;;39.75;23.25;;;;;11.23;70.14;102464.63;5079081;27;45418;-75
2022/02/23 10:13:09;;;;;;;;;55.75;42.50;;;;;11.30;70.06;102460.88;5069900;28;45538;-72
2022/02/23 10:15:41;;;;;;;;;46.50;35.50;;;;;11.42;69.86;102458.66;5081018;27;45433;-73
2022/02/23 10:18:11;;;;;;;;;50.25;38.50;;;;;11.56;69.40;102463.44;5081199;27;45415;-73
2022/02/23 10:20:39;;;;;;;;;55.25;38.50;;;;;11.65;69.49;102462.25;5081718;28;45385;-74
2022/02/23 10:23:18;;;;;;;;;51.50;35.75;;;;;11.73;69.13;102463.69;5081536;27;45395;-73
2022/02/23 10:25:51;;;;;;;;;54.00;39.75;;;;;11.82;68.81;102451.97;5078623;28;47113;-73
2022/02/23 10:28:21;;;;;;;;;44.50;37.00;;;;;11.97;68.69;102455.81;5079245;27;45343;-73
2022/02/23 10:30:50;;;;;;;;;44.50;35.00;;;;;12.06;68.34;102457.25;5095495;27;45450;-70
2022/02/23 10:33:18;;;;;;;;;52.00;37.50;;;;;12.16;68.17;102456.81;5080552;28;45264;-70
2022/02/23 10:35:51;;;;;;;;;47.75;37.50;;;;;12.15;67.71;102452.47;5078301;28;46850;-63
2022/02/23 10:38:30;;;;;;;;;50.25;35.50;;;;;12.13;68.02;102461.38;5076582;28;45472;-65
2022/02/23 10:40:58;;;;;;;;;55.25;37.00;;;;;12.14;68.09;102453.38;5080028;28;45296;-65
2022/02/23 10:43:26;;;;;;;;;44.00;35.25;;;;;12.15;67.42;102449.81;5080828;27;45549;-67
2022/02/23 10:46:09;;;;;;;;;47.00;37.25;;;;;12.20;67.67;102450.50;5080877;27;46002;-64
2022/02/23 10:48:40;;;;;;;;;24.75;7.00;;;;;12.23;67.43;102444.25;5098066;27;45342;-66
2022/02/23 10:51:08;;;;;;;;;33.50;28.25;;;;;12.24;67.50;102438.03;5101675;27;45240;-64
2022/02/23 10:53:35;;;;;;;;;37.00;30.00;;;;;12.26;67.09;102436.22;5101602;27;45367;-68
2022/02/23 10:56:01;;;;;;;;;43.50;34.25;;;;;12.25;66.97;102429.22;5101204;27;45443;-65
2022/02/23 10:58:28;;;;;;;;;46.75;35.75;;;;;12.21;66.91;102439.03;5101169;27;45343;-62
2022/02/23 11:00:56;;;;;;;;;48.50;31.25;;;;;12.21;66.88;102436.38;5101599;27;45255;-66
2022/02/23 11:03:22;;;;;;;;;43.50;34.25;;;;;12.22;66.89;102426.66;5101737;27;45404;-62
2022/02/23 11:05:51;;;;;;;;;39.75;32.75;;;;;12.37;67.94;102426.06;5101847;27;45441;-57
2022/02/23 11:08:17;;;;;;;;;48.25;37.25;;;;;12.55;69.37;102432.38;5100425;27;45403;-58
2022/02/23 11:10:44;;;;;;;;;42.00;33.75;;;;;12.72;67.70;102424.66;5101356;27;45245;-57
2022/02/23 11:13:17;;;;;;;;;45.75;34.00;;;;;12.88;68.50;102431.97;5101534;27;45595;-59
2022/02/23 11:15:46;;;;;;;;;38.25;31.50;;;;;13.01;66.81;102439.28;5101139;27;46197;-63
2022/02/23 11:18:16;;;;;;;;;35.00;32.00;;;;;13.06;66.10;102421.44;5101069;27;45382;-62
2022/02/23 11:20:46;;;;;;;;;24.50;20.25;;;;;13.08;64.44;102421.38;5100931;27;45327;-61